Time;durP1;ratioP1;P1;durP2;ratioP2;P2;SDS_P1;SDS_P2;PMS_P1;PMS_P2;Temp;Humidity;BMP_temperature;BMP_pressure;BME280_temperature;BME280_humidity;BME280_pressure;Samples;Min_cycle;Max_cycle;Signal;HPM_P1;HPM_P2
2021/10/02 00:35:11;;;;;;;5.32;3.40;;;;;;;;;;5019317;28;20092;-79
2021/10/02 00:37:46;;;;;;;5.10;3.05;;;;;;;;;;5015783;28;20042;-80
2021/10/02 00:46:02;;;;;;;5.10;2.58;;;;;;;;;;4942480;29;20117;-80
2021/10/02 00:48:29;;;;;;;7.30;3.10;;;;;;;;;;4953849;29;20034;-79
2021/10/02 00:50:58;;;;;;;7.70;2.67;;;;;;;;;;4974242;28;20045;-80
2021/10/02 00:53:24;;;;;;;5.65;2.30;;;;;;;;;;4996934;28;20015;-80
2021/10/02 00:55:51;;;;;;;3.90;2.40;;;;;;;;;;5000413;28;20023;-79
2021/10/02 00:58:17;;;;;;;5.10;3.15;;;;;;;;;;4996590;28;20034;-80
2021/10/02 01:00:45;;;;;;;6.47;2.58;;;;;;;;;;4995980;28;20065;-80
2021/10/02 01:03:23;;;;;;;5.00;2.50;;;;;;;;;;4995730;28;20030;-79
2021/10/02 01:05:53;;;;;;;6.15;2.80;;;;;;;;;;4995596;28;20019;-79
2021/10/02 01:08:25;;;;;;;7.55;2.95;;;;;;;;;;4995411;28;20103;-79
2021/10/02 01:11:03;;;;;;;4.78;2.47;;;;;;;;;;4994273;28;20439;-79
2021/10/02 01:13:48;;;;;;;6.25;2.78;;;;;;;;;;4994837;28;20101;-79
2021/10/02 01:16:27;;;;;;;4.70;2.80;;;;;;;;;;4994128;28;20034;-79
2021/10/02 01:18:53;;;;;;;4.28;2.40;;;;;;;;;;4994789;28;20129;-79
2021/10/02 01:21:19;;;;;;;6.22;2.75;;;;;;;;;;4995385;28;20041;-79
2021/10/02 01:24:03;;;;;;;7.03;3.20;;;;;;;;;;4995163;28;20034;-78
2021/10/02 01:26:32;;;;;;;7.15;3.00;;;;;;;;;;4995478;28;20023;-79
2021/10/02 01:29:00;;;;;;;4.00;2.47;;;;;;;;;;4994858;28;20034;-79
2021/10/02 01:31:36;;;;;;;4.07;2.95;;;;;;;;;;4994121;28;20031;-79
2021/10/02 01:34:10;;;;;;;6.32;2.83;;;;;;;;;;4993944;28;20077;-79
2021/10/02 01:47:42;;;;;;;5.35;2.47;;;;;;;;;;4993359;28;20076;-79
2021/10/02 01:50:09;;;;;;;7.43;2.85;;;;;;;;;;4992974;28;20026;-79
2021/10/02 01:52:41;;;;;;;6.07;2.72;;;;;;;;;;4992657;28;20113;-79
2021/10/02 01:55:09;;;;;;;4.43;2.67;;;;;;;;;;4993042;28;20494;-79
2021/10/02 01:57:40;;;;;;;6.38;2.75;;;;;;;;;;4991327;28;20019;-79
2021/10/02 02:00:08;;;;;;;5.57;2.85;;;;;;;;;;4993319;28;20034;-79
2021/10/02 02:02:34;;;;;;;5.32;2.65;;;;;;;;;;4994106;28;20125;-78
2021/10/02 02:05:00;;;;;;;9.07;3.88;;;;;;;;;;4993930;28;20034;-79
2021/10/02 02:07:28;;;;;;;7.50;2.72;;;;;;;;;;4992563;28;20037;-78
2021/10/02 02:09:56;;;;;;;4.53;2.50;;;;;;;;;;4992448;28;20026;-79
2021/10/02 02:12:22;;;;;;;7.57;2.50;;;;;;;;;;4995283;28;20072;-78
2021/10/02 02:14:50;;;;;;;4.50;2.28;;;;;;;;;;4999465;28;20403;-79
2021/10/02 02:17:17;;;;;;;7.00;2.50;;;;;;;;;;4994251;28;20030;-79
2021/10/02 02:19:46;;;;;;;4.78;2.42;;;;;;;;;;4992477;28;20085;-80
2021/10/02 02:22:12;;;;;;;4.05;2.05;;;;;;;;;;4992692;28;20018;-79
2021/10/02 02:24:38;;;;;;;3.55;2.22;;;;;;;;;;4993688;28;20054;-80
2021/10/02 02:27:04;;;;;;;4.20;2.60;;;;;;;;;;4993087;28;20030;-79
2021/10/02 02:29:32;;;;;;;4.13;2.20;;;;;;;;;;4992840;28;20034;-79
2021/10/02 02:31:58;;;;;;;5.10;2.65;;;;;;;;;;4991572;28;20026;-80
2021/10/02 02:34:25;;;;;;;3.55;2.15;;;;;;;;;;4991394;28;20613;-79
2021/10/02 02:36:51;;;;;;;3.17;2.20;;;;;;;;;;4992032;28;20045;-79
2021/10/02 02:39:17;;;;;;;3.95;2.40;;;;;;;;;;4991864;28;20038;-79
2021/10/02 02:41:43;;;;;;;6.72;2.60;;;;;;;;;;4991268;28;20058;-79
2021/10/02 02:44:10;;;;;;;3.63;2.60;;;;;;;;;;4992770;28;20093;-79
2021/10/02 02:46:38;;;;;;;4.50;2.75;;;;;;;;;;4993199;28;20031;-80
2021/10/02 02:49:13;;;;;;;5.32;2.72;;;;;;;;;;4992716;28;20065;-79
2021/10/02 02:51:58;;;;;;;8.38;2.67;;;;;;;;;;4993593;28;20411;-79
2021/10/02 02:54:29;;;;;;;5.05;2.67;;;;;;;;;;4998616;28;20095;-79
2021/10/02 02:56:57;;;;;;;6.27;3.07;;;;;;;;;;4999213;28;20491;-79
2021/10/02 02:59:29;;;;;;;5.78;3.33;;;;;;;;;;4998115;28;20527;-79
2021/10/02 03:01:55;;;;;;;5.40;3.03;;;;;;;;;;4997376;28;20031;-79
2021/10/02 03:04:28;;;;;;;6.15;3.22;;;;;;;;;;4998936;28;20265;-79
2021/10/02 03:06:54;;;;;;;5.55;3.22;;;;;;;;;;4999363;28;20030;-80
2021/10/02 03:09:21;;;;;;;7.75;3.53;;;;;;;;;;4998977;28;20030;-80
2021/10/02 03:11:50;;;;;;;5.43;3.10;;;;;;;;;;4998880;28;20034;-80
2021/10/02 03:14:19;;;;;;;4.20;2.80;;;;;;;;;;4999302;28;20038;-80
2021/10/02 03:16:45;;;;;;;10.18;3.38;;;;;;;;;;4998817;28;20790;-80
2021/10/02 03:19:12;;;;;;;5.93;2.63;;;;;;;;;;4998838;28;20034;-79
2021/10/02 03:21:38;;;;;;;4.65;2.55;;;;;;;;;;5000673;28;20030;-79
2021/10/02 03:24:05;;;;;;;6.43;3.25;;;;;;;;;;5008053;28;20124;-79
2021/10/02 03:26:32;;;;;;;5.15;2.78;;;;;;;;;;5004293;28;20036;-80
2021/10/02 03:28:59;;;;;;;7.32;2.83;;;;;;;;;;4999061;28;20069;-79
2021/10/02 03:31:25;;;;;;;4.88;2.97;;;;;;;;;;4999225;28;20014;-80
2021/10/02 03:33:51;;;;;;;4.55;2.65;;;;;;;;;;4999860;28;20549;-79
2021/10/02 03:36:18;;;;;;;6.10;2.28;;;;;;;;;;4998379;28;20088;-79
2021/10/02 03:38:45;;;;;;;3.17;2.53;;;;;;;;;;4999222;28;20030;-80
2021/10/02 03:41:11;;;;;;;5.82;2.63;;;;;;;;;;5000578;28;20126;-80
2021/10/02 03:43:37;;;;;;;4.65;2.83;;;;;;;;;;5002079;28;20042;-81
2021/10/02 03:46:04;;;;;;;7.55;3.22;;;;;;;;;;5001037;28;20034;-81
2021/10/02 03:48:30;;;;;;;5.53;2.30;;;;;;;;;;5001243;28;20050;-80
2021/10/02 03:50:58;;;;;;;4.65;2.38;;;;;;;;;;5006298;28;20109;-79
2021/10/02 03:53:24;;;;;;;5.82;2.60;;;;;;;;;;5011510;28;20142;-80
2021/10/02 03:55:50;;;;;;;7.30;2.97;;;;;;;;;;5008398;28;20036;-81
2021/10/02 03:58:16;;;;;;;3.75;2.30;;;;;;;;;;5006859;28;20515;-81
2021/10/02 04:00:42;;;;;;;8.35;3.20;;;;;;;;;;5007910;28;20096;-82
2021/10/02 04:03:08;;;;;;;4.97;2.83;;;;;;;;;;5008532;28;20023;-82
2021/10/02 04:05:34;;;;;;;6.50;2.30;;;;;;;;;;4999749;28;20042;-80
2021/10/02 04:08:00;;;;;;;5.68;2.30;;;;;;;;;;5000534;28;20066;-81
2021/10/02 04:10:26;;;;;;;4.47;2.50;;;;;;;;;;5000377;28;20042;-83
2021/10/02 04:12:52;;;;;;;6.63;2.65;;;;;;;;;;4996367;28;20525;-81
2021/10/02 04:15:18;;;;;;;5.55;2.85;;;;;;;;;;5002097;28;20027;-83
2021/10/02 04:17:44;;;;;;;4.57;2.60;;;;;;;;;;5003135;28;20034;-82
2021/10/02 04:20:10;;;;;;;5.95;2.33;;;;;;;;;;5004152;28;20029;-85
2021/10/02 04:22:36;;;;;;;4.25;2.17;;;;;;;;;;5000185;28;20082;-80
2021/10/02 04:25:02;;;;;;;5.63;2.13;;;;;;;;;;4995266;28;20030;-80
2021/10/02 04:27:28;;;;;;;5.53;3.03;;;;;;;;;;4995396;28;20110;-79
2021/10/02 04:29:54;;;;;;;7.80;2.40;;;;;;;;;;4994291;28;20053;-80
2021/10/02 04:32:20;;;;;;;4.60;2.50;;;;;;;;;;4994386;28;20022;-79
2021/10/02 04:34:46;;;;;;;5.18;2.40;;;;;;;;;;4995640;28;20027;-80
2021/10/02 04:37:12;;;;;;;6.03;2.67;;;;;;;;;;4994383;28;20165;-80
2021/10/02 04:39:38;;;;;;;4.00;2.08;;;;;;;;;;4995044;28;20035;-80
2021/10/02 04:42:07;;;;;;;4.97;2.55;;;;;;;;;;4995777;28;20041;-80
2021/10/02 04:44:33;;;;;;;6.93;2.63;;;;;;;;;;4993278;28;20026;-80
2021/10/02 04:46:59;;;;;;;5.80;2.95;;;;;;;;;;4995997;28;20041;-79
2021/10/02 04:49:25;;;;;;;6.70;2.70;;;;;;;;;;4995236;28;20023;-80
2021/10/02 04:51:51;;;;;;;4.10;2.13;;;;;;;;;;4994829;28;20022;-80
2021/10/02 04:54:18;;;;;;;5.60;2.67;;;;;;;;;;4994618;28;20027;-80
2021/10/02 04:56:45;;;;;;;5.90;2.65;;;;;;;;;;4994572;28;20026;-81
2021/10/02 04:59:11;;;;;;;6.43;2.50;;;;;;;;;;4993907;28;20080;-80
2021/10/02 05:01:38;;;;;;;6.55;2.80;;;;;;;;;;4993179;28;20532;-80
2021/10/02 05:04:04;;;;;;;8.13;2.70;;;;;;;;;;4995197;28;20590;-80
2021/10/02 05:06:31;;;;;;;5.22;2.30;;;;;;;;;;4993798;28;20502;-79
2021/10/02 05:08:57;;;;;;;4.53;2.60;;;;;;;;;;4994192;28;20037;-81
2021/10/02 05:11:23;;;;;;;5.70;2.67;;;;;;;;;;4994209;28;20042;-80
2021/10/02 05:13:49;;;;;;;5.28;2.55;;;;;;;;;;4994215;28;20010;-80
2021/10/02 05:16:15;;;;;;;5.82;2.47;;;;;;;;;;4992770;28;20018;-80
2021/10/02 05:18:41;;;;;;;8.05;2.88;;;;;;;;;;4993008;28;20052;-80
2021/10/02 05:21:07;;;;;;;5.97;2.60;;;;;;;;;;4994303;28;20653;-80
2021/10/02 05:23:33;;;;;;;5.30;2.72;;;;;;;;;;4993457;28;20050;-80
2021/10/02 05:25:59;;;;;;;6.57;2.65;;;;;;;;;;4991379;28;20525;-80
2021/10/02 05:28:26;;;;;;;5.55;2.53;;;;;;;;;;4994036;28;20045;-80
2021/10/02 05:30:52;;;;;;;6.65;2.95;;;;;;;;;;4993593;28;20033;-80
2021/10/02 05:33:18;;;;;;;5.72;3.00;;;;;;;;;;4993821;28;20026;-79
2021/10/02 05:35:45;;;;;;;5.90;3.00;;;;;;;;;;4996330;28;20050;-80
2021/10/02 05:38:12;;;;;;;4.65;2.92;;;;;;;;;;5005930;28;20034;-80
2021/10/02 05:40:38;;;;;;;6.38;3.60;;;;;;;;;;4993743;28;20026;-81
2021/10/02 05:43:04;;;;;;;5.72;3.10;;;;;;;;;;4993179;28;20062;-81
2021/10/02 05:45:30;;;;;;;5.32;3.20;;;;;;;;;;4991637;28;20113;-81
2021/10/02 05:47:57;;;;;;;5.65;3.55;;;;;;;;;;4994445;28;20027;-81
2021/10/02 05:50:23;;;;;;;7.40;3.83;;;;;;;;;;4992377;28;20461;-82
2021/10/02 05:52:49;;;;;;;5.80;3.88;;;;;;;;;;4993391;28;20052;-81
2021/10/02 05:55:15;;;;;;;9.93;4.20;;;;;;;;;;4993708;28;20030;-81
2021/10/02 05:57:41;;;;;;;5.32;3.42;;;;;;;;;;4993199;28;20056;-81
2021/10/02 06:00:10;;;;;;;7.82;3.90;;;;;;;;;;4986130;28;20042;-81
2021/10/02 06:02:36;;;;;;;6.50;4.07;;;;;;;;;;4989377;28;20030;-80
2021/10/02 06:05:03;;;;;;;5.28;3.70;;;;;;;;;;4988993;28;20105;-81
2021/10/02 06:07:29;;;;;;;6.93;4.05;;;;;;;;;;4989587;28;20057;-79
2021/10/02 06:10:04;;;;;;;7.15;3.88;;;;;;;;;;4987814;28;20080;-79
2021/10/02 06:12:33;;;;;;;6.15;4.13;;;;;;;;;;4988830;28;20023;-79
2021/10/02 06:14:59;;;;;;;8.85;3.88;;;;;;;;;;4991068;28;20703;-80
2021/10/02 06:17:25;;;;;;;8.95;3.90;;;;;;;;;;4991827;28;20101;-79
2021/10/02 06:19:51;;;;;;;10.20;3.50;;;;;;;;;;4989769;28;20026;-80
2021/10/02 06:22:17;;;;;;;5.93;3.55;;;;;;;;;;4990431;28;20026;-79
2021/10/02 06:24:43;;;;;;;8.15;3.28;;;;;;;;;;4991255;28;20065;-80
2021/10/02 06:27:10;;;;;;;8.43;2.50;;;;;;;;;;4991206;28;20030;-79
2021/10/02 06:29:37;;;;;;;9.02;2.50;;;;;;;;;;4990627;28;20030;-79
2021/10/02 06:32:03;;;;;;;4.00;2.42;;;;;;;;;;4992321;28;20054;-79
2021/10/02 06:34:29;;;;;;;5.95;2.60;;;;;;;;;;4991570;28;20045;-78
2021/10/02 06:36:55;;;;;;;5.03;2.65;;;;;;;;;;4991049;28;20042;-78
2021/10/02 06:39:21;;;;;;;6.18;2.60;;;;;;;;;;4990867;28;20082;-79
2021/10/02 06:41:47;;;;;;;6.18;3.85;;;;;;;;;;4991025;28;20065;-79
2021/10/02 06:44:13;;;;;;;8.57;3.63;;;;;;;;;;4994368;28;20034;-78
2021/10/02 06:46:39;;;;;;;4.55;2.67;;;;;;;;;;4994539;28;20031;-79
2021/10/02 06:49:05;;;;;;;5.40;2.63;;;;;;;;;;4993772;28;20058;-79
2021/10/02 06:51:31;;;;;;;5.30;2.50;;;;;;;;;;4994080;28;20089;-79
2021/10/02 06:53:57;;;;;;;7.13;2.42;;;;;;;;;;4989717;28;20082;-79
2021/10/02 06:56:23;;;;;;;3.92;2.22;;;;;;;;;;4992249;28;20026;-80
2021/10/02 06:58:49;;;;;;;5.38;2.55;;;;;;;;;;4992042;28;20038;-79
2021/10/02 07:01:15;;;;;;;4.22;2.28;;;;;;;;;;4994308;28;20089;-81
2021/10/02 07:03:41;;;;;;;5.43;2.28;;;;;;;;;;5000988;28;20066;-81
2021/10/02 07:06:07;;;;;;;4.18;2.60;;;;;;;;;;5004313;28;20045;-81
2021/10/02 07:08:33;;;;;;;3.95;2.40;;;;;;;;;;5008256;28;20037;-84
2021/10/02 07:10:59;;;;;;;3.92;1.83;;;;;;;;;;5010949;28;20077;-79
2021/10/02 07:13:25;;;;;;;3.85;2.28;;;;;;;;;;5003751;28;20050;-79
2021/10/02 07:15:51;;;;;;;5.20;2.40;;;;;;;;;;5009925;28;20027;-80
2021/10/02 07:18:17;;;;;;;6.05;2.40;;;;;;;;;;5012562;28;20080;-78
2021/10/02 07:20:43;;;;;;;4.38;2.40;;;;;;;;;;4987784;28;20542;-80
2021/10/02 07:23:10;;;;;;;3.05;2.28;;;;;;;;;;5001499;28;20400;-80
2021/10/02 07:25:36;;;;;;;4.47;2.42;;;;;;;;;;4997208;28;20550;-80
2021/10/02 07:28:02;;;;;;;3.03;1.98;;;;;;;;;;4995874;28;20041;-81
2021/10/02 07:30:28;;;;;;;3.10;2.13;;;;;;;;;;4996491;28;20090;-80
2021/10/02 07:32:54;;;;;;;5.93;2.72;;;;;;;;;;4995841;28;20081;-80
2021/10/02 07:35:20;;;;;;;4.20;2.47;;;;;;;;;;4982678;28;20121;-81
2021/10/02 07:37:46;;;;;;;7.35;3.75;;;;;;;;;;5000792;28;20034;-80
2021/10/02 07:40:14;;;;;;;5.47;2.25;;;;;;;;;;5001861;28;20061;-80
2021/10/02 07:42:42;;;;;;;4.20;2.33;;;;;;;;;;5004196;28;20061;-81
2021/10/02 07:45:10;;;;;;;3.88;2.53;;;;;;;;;;5005217;28;20041;-79
2021/10/02 07:47:40;;;;;;;5.38;2.30;;;;;;;;;;4984842;28;20426;-80
2021/10/02 07:50:07;;;;;;;6.10;2.72;;;;;;;;;;5001209;28;20030;-80
2021/10/02 07:52:34;;;;;;;4.25;2.22;;;;;;;;;;5004402;28;20038;-81
2021/10/02 07:55:04;;;;;;;7.72;2.20;;;;;;;;;;5003199;28;20050;-80
2021/10/02 07:57:30;;;;;;;9.27;3.38;;;;;;;;;;5006799;28;20022;-78
2021/10/02 07:59:56;;;;;;;4.28;2.50;;;;;;;;;;5007773;28;20038;-79
2021/10/02 08:02:24;;;;;;;5.82;2.92;;;;;;;;;;5004537;28;20129;-82
2021/10/02 08:04:50;;;;;;;4.38;2.30;;;;;;;;;;5002305;28;20060;-81
2021/10/02 08:07:16;;;;;;;3.67;2.15;;;;;;;;;;5004950;28;20553;-80
2021/10/02 08:09:42;;;;;;;6.18;2.40;;;;;;;;;;5001063;28;20037;-81
2021/10/02 08:12:09;;;;;;;3.78;2.13;;;;;;;;;;5006897;28;20073;-81
2021/10/02 08:14:35;;;;;;;4.95;2.25;;;;;;;;;;5003536;28;20026;-80
2021/10/02 08:17:02;;;;;;;6.65;2.72;;;;;;;;;;4997826;28;20034;-79
2021/10/02 08:19:30;;;;;;;6.10;2.10;;;;;;;;;;4998481;28;20041;-81
2021/10/02 08:21:57;;;;;;;6.07;2.60;;;;;;;;;;4998661;28;20567;-80
2021/10/02 08:24:26;;;;;;;5.18;2.25;;;;;;;;;;4996931;28;20046;-80
2021/10/02 08:26:53;;;;;;;4.35;2.17;;;;;;;;;;4996605;28;20088;-81
2021/10/02 08:29:19;;;;;;;3.75;2.20;;;;;;;;;;4994286;28;20030;-80
2021/10/02 08:31:45;;;;;;;5.50;1.85;;;;;;;;;;4993090;28;20073;-80
2021/10/02 08:34:11;;;;;;;3.47;1.80;;;;;;;;;;4993380;28;20026;-79
2021/10/02 08:36:37;;;;;;;4.25;1.80;;;;;;;;;;4994568;28;20023;-80
2021/10/02 08:39:03;;;;;;;5.07;2.22;;;;;;;;;;4992991;28;20083;-80
2021/10/02 08:41:29;;;;;;;4.32;1.65;;;;;;;;;;4993321;28;20041;-80
2021/10/02 08:43:56;;;;;;;3.85;1.95;;;;;;;;;;4993938;28;20096;-81
2021/10/02 08:46:22;;;;;;;4.00;1.75;;;;;;;;;;4993225;28;20042;-82
2021/10/02 08:49:04;;;;;;;3.55;1.92;;;;;;;;;;4994066;28;20057;-80
2021/10/02 08:51:30;;;;;;;2.80;1.85;;;;;;;;;;4991170;28;20041;-81
2021/10/02 08:53:57;;;;;;;4.82;1.90;;;;;;;;;;4993435;28;20041;-81
2021/10/02 08:56:23;;;;;;;4.50;2.13;;;;;;;;;;4993076;28;20110;-81
2021/10/02 08:58:49;;;;;;;2.72;1.52;;;;;;;;;;4992296;28;20065;-80
2021/10/02 09:01:15;;;;;;;5.13;1.67;;;;;;;;;;4998287;28;20030;-80
2021/10/02 09:03:41;;;;;;;4.95;1.90;;;;;;;;;;4999739;28;20050;-81
2021/10/02 09:06:07;;;;;;;4.10;1.80;;;;;;;;;;4991679;28;20037;-80
2021/10/02 09:08:33;;;;;;;3.83;1.90;;;;;;;;;;4994032;28;20038;-81
2021/10/02 09:11:00;;;;;;;2.80;1.50;;;;;;;;;;4993313;28;20029;-80
2021/10/02 09:13:26;;;;;;;3.95;1.65;;;;;;;;;;4993517;28;20026;-78
2021/10/02 09:15:52;;;;;;;4.00;1.92;;;;;;;;;;4993048;28;20114;-78
2021/10/02 09:18:18;;;;;;;2.42;1.52;;;;;;;;;;4993046;28;20029;-78
2021/10/02 09:20:45;;;;;;;3.05;1.85;;;;;;;;;;4991966;28;20094;-81
2021/10/02 09:23:12;;;;;;;7.47;3.03;;;;;;;;;;4995505;28;20030;-81
2021/10/02 09:25:45;;;;;;;2.70;1.65;;;;;;;;;;4993339;28;20109;-79
2021/10/02 09:28:17;;;;;;;3.70;1.67;;;;;;;;;;4989937;28;20066;-79
2021/10/02 09:30:44;;;;;;;5.63;1.60;;;;;;;;;;5000866;28;20506;-82
2021/10/02 09:33:17;;;;;;;4.10;1.40;;;;;;;;;;5012899;28;20021;-82
2021/10/02 09:35:43;;;;;;;8.40;1.65;;;;;;;;;;4995666;28;20094;-83
2021/10/02 09:38:11;;;;;;;3.72;1.60;;;;;;;;;;4994624;28;20085;-82
2021/10/02 09:40:37;;;;;;;3.28;1.35;;;;;;;;;;4995053;28;20609;-83
2021/10/02 09:43:04;;;;;;;2.45;1.52;;;;;;;;;;4995232;28;20030;-80
2021/10/02 09:45:30;;;;;;;2.10;1.35;;;;;;;;;;4998815;28;20541;-80
2021/10/02 09:47:57;;;;;;;3.38;1.40;;;;;;;;;;4977118;28;20149;-80
2021/10/02 09:50:25;;;;;;;1.80;1.10;;;;;;;;;;4975080;28;20062;-83
2021/10/02 09:52:54;;;;;;;6.15;1.40;;;;;;;;;;4994018;28;20062;-80
2021/10/02 09:55:23;;;;;;;2.67;1.60;;;;;;;;;;4993617;28;20027;-81
2021/10/02 09:57:50;;;;;;;3.65;1.65;;;;;;;;;;4994225;28;20033;-81
2021/10/02 10:00:18;;;;;;;4.28;1.60;;;;;;;;;;4991424;28;20034;-81
2021/10/02 10:02:44;;;;;;;3.00;1.70;;;;;;;;;;4994424;28;20038;-81
2021/10/02 10:05:12;;;;;;;4.97;1.30;;;;;;;;;;4992941;28;20038;-81
2021/10/02 10:07:38;;;;;;;3.33;1.30;;;;;;;;;;4994337;28;20497;-81
2021/10/02 10:10:07;;;;;;;4.93;1.20;;;;;;;;;;4993008;28;20072;-83
2021/10/02 10:12:33;;;;;;;2.08;1.20;;;;;;;;;;4995553;28;20065;-81
2021/10/02 10:14:59;;;;;;;2.63;1.50;;;;;;;;;;4992337;28;20049;-82
2021/10/02 10:17:29;;;;;;;3.00;1.50;;;;;;;;;;4993421;28;20031;-83
2021/10/02 10:20:07;;;;;;;3.50;1.10;;;;;;;;;;4994077;28;20709;-81
2021/10/02 10:22:33;;;;;;;5.82;1.40;;;;;;;;;;4994453;28;20038;-82
2021/10/02 10:25:11;;;;;;;5.30;1.60;;;;;;;;;;4998852;28;20026;-82
2021/10/02 10:27:44;;;;;;;2.72;1.20;;;;;;;;;;4995885;28;20034;-82
2021/10/02 10:30:12;;;;;;;3.03;1.33;;;;;;;;;;4995498;28;20033;-82
2021/10/02 10:32:53;;;;;;;3.17;1.25;;;;;;;;;;4995644;28;20022;-84
2021/10/02 10:35:19;;;;;;;2.50;1.35;;;;;;;;;;4996423;28;20056;-85
2021/10/02 10:37:45;;;;;;;3.05;1.35;;;;;;;;;;4994424;28;20121;-85
2021/10/02 10:40:12;;;;;;;2.35;1.40;;;;;;;;;;4993539;28;20491;-87
2021/10/02 10:42:38;;;;;;;4.63;1.60;;;;;;;;;;4993829;28;20018;-86
2021/10/02 10:45:04;;;;;;;3.72;1.60;;;;;;;;;;4994681;28;20030;-84
2021/10/02 10:47:31;;;;;;;2.30;1.10;;;;;;;;;;4995624;28;20037;-84
2021/10/02 10:49:57;;;;;;;2.58;1.45;;;;;;;;;;4993041;28;20559;-84
2021/10/02 10:52:24;;;;;;;2.17;1.33;;;;;;;;;;4996024;28;20042;-84
2021/10/02 10:54:52;;;;;;;4.55;1.50;;;;;;;;;;4999731;28;20034;-81
2021/10/02 10:57:35;;;;;;;4.90;1.48;;;;;;;;;;5005372;28;20038;-82
2021/10/02 11:00:01;;;;;;;4.25;1.80;;;;;;;;;;5000155;28;20593;-83
2021/10/02 11:02:40;;;;;;;2.53;1.35;;;;;;;;;;4993389;28;20061;-83
2021/10/02 11:05:06;;;;;;;3.85;1.50;;;;;;;;;;4994204;28;20030;-83
2021/10/02 11:07:51;;;;;;;2.78;1.60;;;;;;;;;;4993598;28;20117;-81
2021/10/02 11:10:36;;;;;;;4.03;1.77;;;;;;;;;;4994071;28;20700;-83
2021/10/02 11:13:02;;;;;;;2.95;1.63;;;;;;;;;;5001542;28;20531;-82
2021/10/02 11:15:28;;;;;;;2.90;1.70;;;;;;;;;;5004067;28;20057;-82
2021/10/02 11:17:54;;;;;;;4.20;1.65;;;;;;;;;;5005091;28;20086;-83
2021/10/02 11:20:26;;;;;;;4.72;1.80;;;;;;;;;;5010496;28;20086;-83
2021/10/02 11:23:13;;;;;;;3.13;1.70;;;;;;;;;;5003649;28;20106;-83
2021/10/02 11:25:39;;;;;;;3.28;1.58;;;;;;;;;;5008446;28;20027;-83
2021/10/02 11:28:25;;;;;;;3.65;1.50;;;;;;;;;;5009060;28;20117;-83
2021/10/02 11:30:52;;;;;;;4.78;1.70;;;;;;;;;;5003875;28;20040;-84
2021/10/02 11:33:33;;;;;;;5.65;1.70;;;;;;;;;;4990995;28;20061;-82
2021/10/02 11:36:00;;;;;;;4.00;1.75;;;;;;;;;;5001465;28;20097;-83
2021/10/02 11:38:36;;;;;;;3.08;1.60;;;;;;;;;;4998109;28;20031;-83
2021/10/02 11:41:21;;;;;;;3.28;1.40;;;;;;;;;;5006708;28;20027;-83
2021/10/02 11:43:54;;;;;;;3.15;1.65;;;;;;;;;;4998050;28;20026;-84
2021/10/02 11:46:24;;;;;;;3.08;1.38;;;;;;;;;;4998116;28;20387;-84
2021/10/02 11:48:50;;;;;;;3.13;1.40;;;;;;;;;;4997643;28;20042;-84
2021/10/02 11:51:23;;;;;;;1.75;1.30;;;;;;;;;;4994897;28;20069;-85
2021/10/02 11:53:59;;;;;;;5.00;1.42;;;;;;;;;;4996363;28;20030;-83
2021/10/02 11:56:26;;;;;;;3.60;1.58;;;;;;;;;;4997657;28;20433;-82
2021/10/02 11:59:02;;;;;;;3.97;1.55;;;;;;;;;;4996021;28;20038;-83
2021/10/02 12:01:28;;;;;;;3.13;1.60;;;;;;;;;;4995023;28;20530;-85
2021/10/02 12:04:03;;;;;;;2.63;1.55;;;;;;;;;;4993097;28;20030;-88
2021/10/02 12:06:29;;;;;;;3.67;1.70;;;;;;;;;;4994658;28;20117;-85
2021/10/02 12:08:57;;;;;;;2.65;1.30;;;;;;;;;;4995786;28;20030;-85
2021/10/02 12:11:23;;;;;;;3.70;1.60;;;;;;;;;;4994607;28;20030;-85
2021/10/02 12:13:54;;;;;;;4.78;1.48;;;;;;;;;;4999146;28;20038;-84
2021/10/02 12:16:22;;;;;;;6.00;1.50;;;;;;;;;;4996375;28;20069;-85
2021/10/02 12:18:51;;;;;;;5.65;1.70;;;;;;;;;;4993817;28;20175;-84
2021/10/02 12:21:23;;;;;;;4.60;1.80;;;;;;;;;;4996645;28;20030;-83
2021/10/02 12:24:03;;;;;;;2.75;1.65;;;;;;;;;;4995696;28;20034;-82
2021/10/02 12:26:32;;;;;;;4.10;1.52;;;;;;;;;;4996495;28;20099;-88
2021/10/02 12:28:59;;;;;;;2.60;1.50;;;;;;;;;;4997818;28;20030;-86
2021/10/02 12:31:41;;;;;;;4.05;1.63;;;;;;;;;;4993967;28;20026;-83
2021/10/02 12:34:21;;;;;;;4.05;1.85;;;;;;;;;;4992100;28;20038;-81
2021/10/02 12:36:58;;;;;;;5.57;1.67;;;;;;;;;;4995466;28;20084;-84
2021/10/02 12:39:26;;;;;;;4.25;1.48;;;;;;;;;;4994991;28;20031;-84
2021/10/02 12:41:53;;;;;;;2.42;1.52;;;;;;;;;;4996926;28;20044;-84
2021/10/02 12:44:23;;;;;;;2.15;1.30;;;;;;;;;;4997135;28;20054;-83
2021/10/02 12:46:49;;;;;;;3.90;2.03;;;;;;;;;;4995805;28;20081;-84
2021/10/02 12:49:16;;;;;;;2.22;1.50;;;;;;;;;;4995004;28;20026;-81
2021/10/02 12:51:43;;;;;;;2.78;1.70;;;;;;;;;;4990474;28;20463;-82
2021/10/02 12:54:09;;;;;;;4.68;2.15;;;;;;;;;;4996507;28;20081;-81
2021/10/02 12:56:36;;;;;;;3.58;1.50;;;;;;;;;;4997864;28;20717;-82
2021/10/02 12:59:12;;;;;;;3.75;1.60;;;;;;;;;;4996878;28;20029;-83
2021/10/02 13:01:49;;;;;;;3.15;1.33;;;;;;;;;;4996885;28;20524;-82
2021/10/02 13:04:19;;;;;;;4.15;1.67;;;;;;;;;;5002713;28;20094;-83
2021/10/02 13:06:52;;;;;;;3.63;1.45;;;;;;;;;;5013534;28;20010;-83
2021/10/02 13:09:18;;;;;;;1.52;1.23;;;;;;;;;;5015663;28;20125;-83
2021/10/02 13:11:44;;;;;;;4.15;1.63;;;;;;;;;;5016315;28;20006;-85
2021/10/02 13:14:11;;;;;;;4.72;1.45;;;;;;;;;;4999615;28;20079;-84
2021/10/02 13:16:37;;;;;;;4.50;1.50;;;;;;;;;;4976725;28;20023;-83
2021/10/02 13:19:03;;;;;;;2.17;1.40;;;;;;;;;;4997608;28;20093;-85
2021/10/02 13:21:29;;;;;;;2.63;1.52;;;;;;;;;;4993868;28;20030;-84
2021/10/02 13:24:06;;;;;;;5.28;1.75;;;;;;;;;;4998308;28;20046;-83
2021/10/02 13:26:32;;;;;;;3.72;1.50;;;;;;;;;;4993369;28;20034;-84
2021/10/02 13:28:58;;;;;;;2.65;1.67;;;;;;;;;;4990296;28;20026;-83
2021/10/02 13:31:26;;;;;;;2.85;1.45;;;;;;;;;;4991354;28;20045;-84
2021/10/02 13:33:56;;;;;;;2.50;1.60;;;;;;;;;;4987416;28;20022;-82
2021/10/02 13:36:30;;;;;;;2.50;1.48;;;;;;;;;;4989453;28;20088;-82
2021/10/02 13:39:09;;;;;;;3.90;2.00;;;;;;;;;;4988888;28;20022;-82
2021/10/02 13:41:35;;;;;;;3.50;1.52;;;;;;;;;;4990400;28;20015;-83
2021/10/02 13:44:03;;;;;;;3.70;1.60;;;;;;;;;;4990512;28;20087;-84
2021/10/02 13:46:31;;;;;;;3.20;1.55;;;;;;;;;;4989272;28;20030;-84
2021/10/02 13:48:57;;;;;;;4.55;1.80;;;;;;;;;;4991368;28;20553;-84
2021/10/02 13:51:23;;;;;;;3.97;1.70;;;19.20;99.20;;;;;;4992650;28;20029;-84
2021/10/02 13:53:49;;;;;;;3.38;1.60;;;;;;;;;;4997274;28;20030;-84
2021/10/02 13:56:15;;;;;;;2.78;1.52;;;;;;;;;;4991433;28;20084;-83
2021/10/02 13:58:41;;;;;;;3.83;1.52;;;;;;;;;;4996970;28;20026;-84
2021/10/02 14:01:10;;;;;;;2.03;1.30;;;;;;;;;;4993031;28;20084;-84
2021/10/02 14:03:36;;;;;;;3.08;1.70;;;;;;;;;;4999658;28;20129;-85
2021/10/02 14:06:02;;;;;;;2.47;1.50;;;;;;;;;;4999718;28;20030;-85
2021/10/02 14:08:28;;;;;;;4.03;1.90;;;;;;;;;;4999176;28;20026;-83
2021/10/02 14:10:54;;;;;;;4.60;2.00;;;;;;;;;;4997713;28;20124;-82
2021/10/02 14:13:21;;;;;;;2.40;1.65;;;;;;;;;;4996441;28;20022;-84
2021/10/02 14:15:47;;;;;;;1.48;1.23;;;;;;;;;;4994556;28;20026;-82
2021/10/02 14:18:12;;;;;;;2.35;1.65;;;27.90;62.50;;;;;;4995161;28;20134;-84
2021/10/02 14:20:39;;;;;;;2.20;1.58;;;;;;;;;;4995411;28;20626;-84
2021/10/02 14:23:04;;;;;;;2.60;1.50;;;32.00;53.80;;;;;;4990084;28;20065;-84
2021/10/02 14:25:30;;;;;;;2.75;2.13;;;;;;;;;;4996341;28;20033;-83
2021/10/02 14:27:57;;;;;;;2.00;1.40;;;;;;;;;;4993398;28;20030;-84
2021/10/02 14:30:25;;;;;;;3.17;1.67;;;;;;;;;;4995114;28;20050;-85
2021/10/02 14:32:53;;;;;;;2.17;1.40;;;;;;;;;;4996258;28;20029;-84
2021/10/02 14:35:19;;;;;;;2.63;1.35;;;;;;;;;;4995483;28;20014;-84
2021/10/02 14:37:46;;;;;;;4.25;1.60;;;;;;;;;;4997008;28;20049;-84
2021/10/02 14:40:12;;;;;;;2.85;1.77;;;;;;;;;;4996732;28;20487;-84
2021/10/02 14:42:39;;;;;;;3.25;1.73;;;;;;;;;;5000960;28;20088;-84
2021/10/02 14:45:06;;;;;;;1.90;1.58;;;;;;;;;;4998381;28;20038;-84
2021/10/02 14:47:32;;;;;;;2.72;1.73;;;;;;;;;;4983244;28;20023;-83
2021/10/02 14:49:58;;;;;;;2.38;1.58;;;;;;;;;;4987477;28;20030;-84
2021/10/02 14:52:25;;;;;;;2.58;1.58;;;;;;;;;;5003871;28;20027;-85
2021/10/02 14:54:54;;;;;;;3.50;1.63;;;;;;;;;;4995226;28;20034;-85
2021/10/02 14:57:22;;;;;;;2.80;1.60;;;;;;;;;;4993835;28;20875;-84
2021/10/02 14:59:50;;;;;;;2.42;1.40;;;;;;;;;;4994901;28;20029;-84
2021/10/02 15:02:16;;;;;;;2.72;1.50;;;;;;;;;;4999118;28;20030;-85
2021/10/02 15:04:44;;;;;;;3.35;1.70;;;;;;;;;;4997332;28;20038;-86
2021/10/02 15:07:12;;;;;;;3.15;1.70;;;;;;;;;;4994669;28;20030;-85
2021/10/02 15:09:38;;;;;;;3.50;1.65;;;;;;;;;;4991314;28;20035;-84
2021/10/02 15:12:04;;;;;;;2.72;1.65;;;;;;;;;;4991516;28;20110;-84
2021/10/02 15:14:32;;;;;;;2.25;1.60;;;33.20;54.00;;;;;;4995344;28;20033;-84
2021/10/02 15:16:57;;;;;;;2.78;1.77;;;27.80;59.70;;;;;;5005648;28;19998;-82
2021/10/02 15:19:23;;;;;;;3.88;1.63;;;26.90;61.00;;;;;;5005304;28;20035;-83
2021/10/02 15:22:02;;;;;;;4.22;1.95;;;26.50;62.10;;;;;;4991704;28;20022;-83
2021/10/02 15:24:32;;;;;;;2.50;1.50;;;26.40;64.50;;;;;;4988514;28;20050;-84
2021/10/02 15:27:03;;;;;;;3.72;1.70;;;25.80;64.40;;;;;;4988285;28;20113;-84
2021/10/02 15:29:31;;;;;;;2.28;1.52;;;25.50;65.80;;;;;;4989418;28;20088;-84
2021/10/02 15:32:01;;;;;;;4.38;1.48;;;25.40;66.40;;;;;;4989886;28;20029;-84
2021/10/02 15:34:28;;;;;;;2.58;1.45;;;25.10;67.50;;;;;;4990526;28;20044;-84